createdAt,value
2019-04-16T00:00:44.183Z,48.05
2019-04-16T00:03:10.932Z,54.67
2019-04-16T00:05:39.494Z,53.58
2019-04-16T00:08:26.703Z,49.58
2019-04-16T00:10:57.079Z,53.05
2019-04-16T00:13:41.067Z,50.35
2019-04-16T00:16:12.724Z,49.85
2019-04-16T00:18:36.462Z,46.68
2019-04-16T00:21:23.061Z,47.17
2019-04-16T00:24:08.127Z,43.23
2019-04-16T00:26:35.921Z,50.10
2019-04-16T00:29:03.035Z,52.05
2019-04-16T00:31:30.384Z,51.75
2019-04-16T00:33:57.114Z,55.75
2019-04-16T00:36:23.763Z,43.58
2019-04-16T00:38:53.789Z,49.25
2019-04-16T00:41:19.188Z,49.35
2019-04-16T00:43:46.040Z,50.63
2019-04-16T00:46:12.747Z,48.78
2019-04-16T00:48:39.548Z,53.58
2019-04-16T00:51:06.276Z,50.85
2019-04-16T00:53:32.978Z,50.63
2019-04-16T00:55:59.715Z,46.02
2019-04-16T00:58:26.434Z,47.27
2019-04-16T01:00:53.203Z,49.58
2019-04-16T01:03:19.931Z,50.48
2019-04-16T01:05:47.774Z,46.73
2019-04-16T01:08:14.719Z,47.43
2019-04-16T01:10:41.447Z,47.20
2019-04-16T01:13:08.144Z,51.68
2019-04-16T01:15:34.886Z,52.08
2019-04-16T01:18:04.340Z,51.90
2019-04-16T01:20:31.619Z,49.20
2019-04-16T01:22:58.287Z,49.73
2019-04-16T01:25:25.035Z,45.88
2019-04-16T01:27:53.563Z,47.00
2019-04-16T01:30:22.218Z,45.33
2019-04-16T01:32:59.610Z,42.35
2019-04-16T01:35:28.173Z,46.68
2019-04-16T01:38:13.437Z,49.10
2019-04-16T01:40:41.999Z,45.05
2019-04-16T01:43:08.726Z,41.88
2019-04-16T01:45:36.612Z,47.95
2019-04-16T01:48:06.906Z,51.68
2019-04-16T01:50:32.208Z,50.17
2019-04-16T01:52:58.974Z,47.62
2019-04-16T01:55:26.433Z,51.33
2019-04-16T01:57:53.346Z,49.73
2019-04-16T02:00:20.051Z,48.28
2019-04-16T02:02:47.093Z,45.63
2019-04-16T02:05:13.978Z,45.80
2019-04-16T02:07:40.596Z,48.58
2019-04-16T02:10:08.869Z,50.00
2019-04-16T02:12:35.871Z,48.00
2019-04-16T02:15:08.405Z,49.33
2019-04-16T02:17:35.037Z,51.55
2019-04-16T02:20:05.549Z,49.45
2019-04-16T02:22:30.255Z,49.90
2019-04-16T02:24:56.889Z,48.33
2019-04-16T02:27:26.248Z,48.58
2019-04-16T02:29:53.700Z,43.00
2019-04-16T02:32:21.614Z,51.28
2019-04-16T02:34:48.269Z,41.13
2019-04-16T02:37:16.058Z,42.53
2019-04-16T02:39:49.884Z,47.53
2019-04-16T02:42:12.272Z,46.42
2019-04-16T02:44:38.915Z,41.77
2019-04-16T02:47:07.715Z,41.77
2019-04-16T02:49:34.098Z,43.63
2019-04-16T02:52:05.457Z,44.38
2019-04-16T02:54:34.536Z,45.67
2019-04-16T02:57:06.025Z,45.52
2019-04-16T02:59:47.381Z,30.08
2019-04-16T03:02:23.771Z,44.08
2019-04-16T03:04:52.508Z,45.75
2019-04-16T03:07:19.191Z,41.28
2019-04-16T03:09:45.816Z,41.80
2019-04-16T03:12:12.555Z,45.20
2019-04-16T03:14:39.144Z,38.75
2019-04-16T03:17:10.215Z,41.60
2019-04-16T03:19:39.010Z,42.38
2019-04-16T03:22:06.879Z,39.60
2019-04-16T03:24:33.527Z,41.75
2019-04-16T03:27:00.138Z,41.02
2019-04-16T03:29:27.483Z,43.48
2019-04-16T03:31:58.352Z,39.73
2019-04-16T03:34:23.793Z,41.30
2019-04-16T03:36:50.808Z,41.55
2019-04-16T03:39:17.522Z,42.43
2019-04-16T03:41:44.154Z,42.93
2019-04-16T03:44:10.716Z,41.98
2019-04-16T03:46:39.910Z,42.67
2019-04-16T03:49:05.760Z,41.02
2019-04-16T03:51:32.670Z,38.48
2019-04-16T03:54:00.977Z,40.95
2019-04-16T03:56:30.663Z,37.15
2019-04-16T03:58:56.077Z,36.38
2019-04-16T04:01:22.677Z,41.80
2019-04-16T04:03:49.320Z,36.30
2019-04-16T04:06:15.993Z,37.23
2019-04-16T04:08:45.365Z,38.48
2019-04-16T04:11:11.224Z,38.63
2019-04-16T04:13:37.779Z,44.73
2019-04-16T04:16:04.404Z,39.05
2019-04-16T04:18:31.101Z,36.50
2019-04-16T04:20:57.703Z,35.73
2019-04-16T04:23:25.484Z,38.90
2019-04-16T04:25:52.903Z,34.73
2019-04-16T04:28:20.529Z,40.30
2019-04-16T04:30:48.960Z,34.08
2019-04-16T04:33:17.742Z,35.33
2019-04-16T04:35:44.396Z,36.00
2019-04-16T04:38:11.020Z,34.80
2019-04-16T04:40:44.421Z,33.85
2019-04-16T04:43:06.401Z,34.33
2019-04-16T04:45:33.024Z,35.95
2019-04-16T04:48:00.739Z,37.40
2019-04-16T04:50:27.365Z,36.28
2019-04-16T04:52:54.022Z,41.10
2019-04-16T04:55:23.414Z,42.58
2019-04-16T04:57:49.230Z,37.10
2019-04-16T05:00:16.197Z,35.90
2019-04-16T05:02:43.669Z,33.63
2019-04-16T05:05:15.512Z,38.25
2019-04-16T05:07:42.261Z,39.20
2019-04-16T05:10:09.080Z,43.80
2019-04-16T05:12:35.716Z,40.58
2019-04-16T05:15:04.643Z,46.95
2019-04-16T05:17:32.284Z,44.23
2019-04-16T05:19:58.933Z,41.35
2019-04-16T05:22:25.571Z,38.85
2019-04-16T05:24:52.190Z,35.15
2019-04-16T05:27:18.818Z,38.25
2019-04-16T05:29:48.334Z,36.08
2019-04-16T05:32:13.992Z,35.63
2019-04-16T05:34:40.594Z,35.43
2019-04-16T05:37:07.217Z,38.80
2019-04-16T05:39:33.795Z,42.35
2019-04-16T05:42:00.543Z,38.02
2019-04-16T05:44:27.210Z,40.20
2019-04-16T05:46:53.920Z,43.45
2019-04-16T05:49:24.671Z,45.08
2019-04-16T05:51:49.137Z,41.70
2019-04-16T05:54:26.730Z,38.95
2019-04-16T05:56:57.993Z,38.65
2019-04-16T05:59:24.566Z,29.87
2019-04-16T06:02:01.676Z,39.13
2019-04-16T06:04:28.266Z,44.53
2019-04-16T06:06:54.976Z,53.10
2019-04-16T06:09:21.590Z,41.50
2019-04-16T06:11:48.178Z,43.15
2019-04-16T06:14:26.215Z,44.98
2019-04-16T06:16:57.691Z,43.48
2019-04-16T06:19:47.502Z,40.92
2019-04-16T06:22:16.629Z,37.65
2019-04-16T06:25:08.493Z,37.53
2019-04-16T06:27:49.741Z,32.40
2019-04-16T06:30:33.924Z,38.55
2019-04-16T06:33:00.578Z,39.73
2019-04-16T06:35:43.377Z,40.33
2019-04-16T06:38:13.885Z,38.90
2019-04-16T06:40:51.370Z,40.58
2019-04-16T06:43:25.980Z,39.45
2019-04-16T06:46:01.788Z,38.98
2019-04-16T06:48:30.155Z,33.95
2019-04-16T06:51:15.271Z,36.75
2019-04-16T06:54:00.623Z,43.40
2019-04-16T06:56:41.116Z,38.83
2019-04-16T06:59:16.757Z,35.58
2019-04-16T07:02:00.060Z,36.33
2019-04-16T07:04:45.173Z,39.30
2019-04-16T07:07:13.608Z,34.10
2019-04-16T07:09:42.314Z,35.83
2019-04-16T07:12:11.780Z,40.33
2019-04-16T07:14:38.391Z,35.90
2019-04-16T07:17:04.987Z,34.30
2019-04-16T07:19:31.557Z,47.35
2019-04-16T07:21:59.032Z,40.40
2019-04-16T07:24:30.207Z,41.13
2019-04-16T07:26:56.297Z,42.85
2019-04-16T07:29:36.322Z,40.95
2019-04-16T07:32:21.797Z,42.13
2019-04-16T07:34:50.251Z,39.40
2019-04-16T07:37:32.888Z,37.98
2019-04-16T07:40:00.750Z,44.85
2019-04-16T07:42:51.816Z,40.95
2019-04-16T07:45:14.722Z,45.17
2019-04-16T07:47:43.104Z,27.05
2019-04-16T07:50:11.596Z,38.08
2019-04-16T07:52:42.010Z,41.80
2019-04-16T07:55:10.557Z,40.60
2019-04-16T07:57:37.229Z,40.83
2019-04-16T08:00:09.511Z,42.50
2019-04-16T08:02:35.983Z,42.73
2019-04-16T08:05:07.751Z,38.90
2019-04-16T08:07:33.299Z,43.38
2019-04-16T08:10:02.057Z,39.40
2019-04-16T08:12:30.325Z,33.73
2019-04-16T08:14:57.143Z,41.20
2019-04-16T08:17:23.703Z,37.75
2019-04-16T08:19:50.305Z,37.13
2019-04-16T08:22:16.992Z,38.65
2019-04-16T08:25:04.140Z,35.83
2019-04-16T08:27:31.034Z,35.63
2019-04-16T08:30:02.475Z,34.92
2019-04-16T08:32:26.314Z,31.40
2019-04-16T08:34:52.902Z,31.33
2019-04-16T08:37:19.467Z,26.20
2019-04-16T08:39:46.079Z,28.20
2019-04-16T08:42:13.760Z,29.60
2019-04-16T08:44:40.363Z,26.25
2019-04-16T08:47:11.476Z,30.75
2019-04-16T08:49:35.544Z,31.20
2019-04-16T08:52:02.160Z,29.65
2019-04-16T08:54:28.777Z,24.65
2019-04-16T08:56:56.383Z,27.13
2019-04-16T08:59:22.994Z,26.60
2019-04-16T09:01:51.375Z,26.48
2019-04-16T09:04:18.491Z,23.55
2019-04-16T09:06:46.367Z,27.58
2019-04-16T09:09:27.711Z,26.75
2019-04-16T09:11:56.151Z,27.70
2019-04-16T09:14:25.664Z,27.67
2019-04-16T09:17:06.956Z,26.68
2019-04-16T09:19:35.461Z,32.30
2019-04-16T09:22:02.071Z,29.87
2019-04-16T09:24:40.461Z,30.12
2019-04-16T09:27:28.650Z,26.12
2019-04-16T09:30:17.008Z,30.80
2019-04-16T09:32:47.256Z,26.42
2019-04-16T09:35:19.658Z,23.95
2019-04-16T09:37:55.143Z,23.90
2019-04-16T09:40:40.229Z,25.27
2019-04-16T09:43:18.646Z,22.42
2019-04-16T09:45:45.342Z,26.48
2019-04-16T09:48:12.072Z,26.82
2019-04-16T09:50:43.160Z,21.97
2019-04-16T09:53:07.282Z,26.73
2019-04-16T09:55:33.904Z,21.07
2019-04-16T09:58:06.094Z,22.37
2019-04-16T10:00:32.808Z,21.40
2019-04-16T10:03:01.216Z,21.33
2019-04-16T10:05:29.687Z,20.80
2019-04-16T10:07:57.423Z,19.90
2019-04-16T10:10:28.315Z,24.07
2019-04-16T10:12:52.585Z,16.52
2019-04-16T10:15:19.177Z,21.80
2019-04-16T10:17:45.824Z,18.40
2019-04-16T10:20:12.772Z,23.07
2019-04-16T10:22:39.577Z,22.10
2019-04-16T10:25:08.313Z,24.52
2019-04-16T10:27:39.570Z,21.90
2019-04-16T10:30:15.045Z,23.00
2019-04-16T10:32:41.671Z,24.80
2019-04-16T10:35:08.387Z,20.17
2019-04-16T10:37:35.039Z,22.40
2019-04-16T10:40:15.354Z,23.85
2019-04-16T10:42:47.206Z,23.07
2019-04-16T10:45:30.977Z,24.85
2019-04-16T10:48:05.245Z,20.85
2019-04-16T10:50:33.719Z,22.60
2019-04-16T10:53:02.220Z,21.30
2019-04-16T10:55:30.709Z,19.85
2019-04-16T10:58:14.347Z,22.70
2019-04-16T11:00:52.763Z,21.62
2019-04-16T11:03:28.676Z,21.00
2019-04-16T11:05:57.841Z,22.32
2019-04-16T11:08:24.942Z,22.67
2019-04-16T11:10:51.515Z,19.87
2019-04-16T11:13:19.967Z,24.12
2019-04-16T11:15:46.558Z,20.15
2019-04-16T11:18:13.180Z,21.27
2019-04-16T11:20:39.972Z,19.60
2019-04-16T11:23:07.510Z,17.65
2019-04-16T11:25:34.838Z,22.22
2019-04-16T11:28:01.462Z,23.27
2019-04-16T11:30:29.881Z,18.40
2019-04-16T11:32:58.166Z,20.60
2019-04-16T11:35:24.818Z,20.48
2019-04-16T11:37:51.489Z,19.73
2019-04-16T11:40:18.083Z,18.07
2019-04-16T11:42:44.697Z,18.85
2019-04-16T11:45:13.782Z,19.50
2019-04-16T11:47:40.436Z,21.87
2019-04-16T11:50:07.242Z,20.10
2019-04-16T11:52:33.974Z,20.45
2019-04-16T11:55:00.903Z,21.10
2019-04-16T11:57:29.356Z,16.97
2019-04-16T12:00:06.604Z,20.32
2019-04-16T12:02:32.514Z,18.65
2019-04-16T12:05:04.088Z,19.75
2019-04-16T12:07:41.370Z,18.32
2019-04-16T12:10:14.587Z,17.62
2019-04-16T12:12:55.107Z,15.65
2019-04-16T12:15:23.620Z,20.05
2019-04-16T12:18:00.861Z,16.82
2019-04-16T12:20:45.986Z,18.48
2019-04-16T12:23:23.345Z,17.62
2019-04-16T12:25:54.750Z,17.17
2019-04-16T12:28:32.474Z,18.67
2019-04-16T12:31:10.022Z,16.10
2019-04-16T12:33:56.822Z,17.42
2019-04-16T12:36:41.608Z,13.32
2019-04-16T12:39:27.098Z,14.35
2019-04-16T12:42:13.632Z,16.70
2019-04-16T12:44:45.651Z,13.65
2019-04-16T12:47:12.612Z,14.78
2019-04-16T12:49:41.030Z,14.43
2019-04-16T12:52:15.598Z,10.68
2019-04-16T12:54:42.937Z,11.40
2019-04-16T12:57:29.420Z,11.12
2019-04-16T13:00:14.546Z,17.25
2019-04-16T13:02:46.133Z,15.60
2019-04-16T13:05:20.880Z,13.28
2019-04-16T13:07:47.729Z,15.03
2019-04-16T13:10:18.976Z,13.48
2019-04-16T13:12:56.636Z,16.97
2019-04-16T13:15:41.673Z,15.38
2019-04-16T13:18:10.192Z,16.17
2019-04-16T13:20:57.453Z,14.93
2019-04-16T13:23:35.029Z,17.27
2019-04-16T13:26:05.138Z,12.25
2019-04-16T13:28:31.787Z,13.60
2019-04-16T13:30:58.419Z,15.28
2019-04-16T13:33:24.938Z,18.45
2019-04-16T13:35:51.499Z,15.85
2019-04-16T13:38:20.050Z,18.37
2019-04-16T13:40:46.667Z,13.30
2019-04-16T13:43:15.093Z,13.08
2019-04-16T13:45:41.783Z,13.25
2019-04-16T13:48:16.619Z,12.93
2019-04-16T13:50:41.175Z,12.43
2019-04-16T13:53:28.643Z,11.35
2019-04-16T13:55:55.315Z,12.35
2019-04-16T13:58:39.089Z,12.95
2019-04-16T14:01:25.785Z,14.90
2019-04-16T14:03:56.102Z,15.60
2019-04-16T14:06:21.073Z,14.50
2019-04-16T14:08:48.588Z,16.02
2019-04-16T14:11:16.586Z,18.42
2019-04-16T14:13:44.975Z,11.50
2019-04-16T14:16:13.594Z,14.00
2019-04-16T14:18:40.393Z,16.77
2019-04-16T14:21:07.024Z,12.55
2019-04-16T14:23:33.688Z,17.65
2019-04-16T14:26:00.354Z,14.87
2019-04-16T14:28:26.964Z,15.58
2019-04-16T14:30:53.577Z,13.38
2019-04-16T14:33:40.285Z,11.65
2019-04-16T14:36:07.598Z,13.05
2019-04-16T14:38:36.055Z,12.98
2019-04-16T14:41:02.727Z,15.95
2019-04-16T14:43:31.109Z,10.93
2019-04-16T14:46:00.107Z,13.43
2019-04-16T14:48:26.369Z,10.68
2019-04-16T14:50:52.993Z,12.45
2019-04-16T14:53:21.414Z,14.90
2019-04-16T14:55:59.902Z,9.55
2019-04-16T14:58:38.377Z,10.82
2019-04-16T15:01:09.603Z,12.30
2019-04-16T15:03:38.014Z,10.18
2019-04-16T15:06:09.178Z,9.10
2019-04-16T15:08:54.343Z,9.28
2019-04-16T15:11:35.947Z,8.15
2019-04-16T15:14:23.360Z,9.98
2019-04-16T15:16:58.498Z,8.48
2019-04-16T15:19:26.917Z,7.95
2019-04-16T15:22:14.404Z,12.35
2019-04-16T15:24:57.243Z,11.75
2019-04-16T15:27:41.984Z,9.70
2019-04-16T15:30:28.616Z,8.88
2019-04-16T15:33:05.286Z,11.33
2019-04-16T15:35:32.632Z,12.37
2019-04-16T15:38:04.304Z,12.20
2019-04-16T15:40:33.045Z,11.10
2019-04-16T15:43:09.778Z,9.78
2019-04-16T15:45:38.173Z,11.25
2019-04-16T15:48:06.612Z,9.78
2019-04-16T15:50:40.988Z,9.50
2019-04-16T15:53:09.373Z,10.78
2019-04-16T15:55:46.878Z,10.38
2019-04-16T15:58:27.515Z,11.10
2019-04-16T16:01:13.534Z,9.53
2019-04-16T16:03:54.133Z,9.93
2019-04-16T16:06:22.583Z,10.95
2019-04-16T16:09:07.077Z,9.15
2019-04-16T16:11:34.021Z,11.22
2019-04-16T16:14:02.243Z,15.25
2019-04-16T16:16:41.434Z,11.73
2019-04-16T16:18:58.624Z,9.63
2019-04-16T16:21:25.338Z,11.10
2019-04-16T16:23:51.969Z,9.80
2019-04-16T16:26:18.592Z,10.72
2019-04-16T16:28:46.347Z,10.50
2019-04-16T16:31:12.996Z,8.95
2019-04-16T16:33:39.652Z,8.25
2019-04-16T16:36:06.291Z,11.78
2019-04-16T16:38:32.925Z,11.85
2019-04-16T16:40:59.606Z,9.15
2019-04-16T16:43:26.245Z,10.35
2019-04-16T16:46:04.563Z,10.30
2019-04-16T16:48:31.371Z,8.70
2019-04-16T16:50:57.984Z,11.90
2019-04-16T16:53:26.402Z,8.43
2019-04-16T16:55:54.721Z,8.38
2019-04-16T16:58:39.850Z,9.93
2019-04-16T17:01:08.249Z,8.23
2019-04-16T17:03:36.722Z,11.18
2019-04-16T17:06:03.766Z,9.85
2019-04-16T17:08:30.990Z,10.13
2019-04-16T17:11:14.082Z,11.55
2019-04-16T17:13:26.929Z,16.42
2019-04-16T17:15:53.555Z,12.40
2019-04-16T17:18:20.219Z,12.40
2019-04-16T17:20:50.077Z,14.98
2019-04-16T17:23:16.798Z,17.60
2019-04-16T17:25:43.959Z,17.48
2019-04-16T17:28:10.638Z,18.00
2019-04-16T17:30:37.253Z,19.45
2019-04-16T17:33:03.905Z,13.30
2019-04-16T17:35:30.700Z,14.18
2019-04-16T17:38:01.604Z,13.50
2019-04-16T17:40:37.200Z,14.43
2019-04-16T17:43:12.642Z,15.30
2019-04-16T17:45:42.271Z,13.85
2019-04-16T17:48:25.802Z,24.30
2019-04-16T17:50:54.843Z,16.40
2019-04-16T17:53:39.788Z,17.67
2019-04-16T17:56:11.000Z,21.10
2019-04-16T17:58:39.449Z,20.27
2019-04-16T18:01:24.513Z,19.17
2019-04-16T18:03:53.005Z,15.23
2019-04-16T18:06:21.461Z,23.80
2019-04-16T18:08:58.958Z,19.12
2019-04-16T18:11:31.258Z,18.70
2019-04-16T18:14:11.365Z,15.40
2019-04-16T18:16:55.479Z,16.90
2019-04-16T18:19:24.954Z,17.90
2019-04-16T18:21:53.732Z,16.87
2019-04-16T18:24:38.599Z,21.68
2019-04-16T18:27:15.877Z,28.50
2019-04-16T18:29:56.375Z,26.27
2019-04-16T18:32:30.506Z,30.35
2019-04-16T18:35:16.530Z,27.58
2019-04-16T18:37:48.588Z,28.77
2019-04-16T18:40:33.434Z,26.68
2019-04-16T18:43:04.580Z,27.87
2019-04-16T18:45:38.892Z,35.03
2019-04-16T18:48:13.832Z,38.10
2019-04-16T18:50:39.096Z,35.10
2019-04-16T18:53:09.577Z,32.03
2019-04-16T18:55:35.321Z,29.00
2019-04-16T18:58:01.993Z,35.45
2019-04-16T19:00:39.590Z,29.48
2019-04-16T19:03:06.145Z,29.52
2019-04-16T19:05:32.760Z,35.70
2019-04-16T19:08:00.826Z,30.95
2019-04-16T19:10:27.814Z,38.92
2019-04-16T19:12:55.016Z,37.65
2019-04-16T19:15:21.700Z,33.80
2019-04-16T19:17:49.861Z,37.85
2019-04-16T19:20:17.790Z,33.95
2019-04-16T19:22:46.513Z,36.88
2019-04-16T19:25:15.703Z,35.08
2019-04-16T19:27:42.306Z,36.00
2019-04-16T19:30:09.247Z,38.83
2019-04-16T19:32:35.865Z,36.83
2019-04-16T19:35:10.118Z,41.77
2019-04-16T19:37:33.377Z,43.30
2019-04-16T19:40:00.708Z,32.90
2019-04-16T19:42:28.813Z,35.60
2019-04-16T19:44:55.913Z,35.68
2019-04-16T19:47:23.365Z,35.52
2019-04-16T19:49:51.440Z,41.08
2019-04-16T19:52:18.093Z,35.15
2019-04-16T19:54:44.766Z,31.25
2019-04-16T19:57:11.460Z,32.15
2019-04-16T19:59:38.206Z,29.12
2019-04-16T20:02:04.934Z,30.88
2019-04-16T20:04:33.369Z,33.67
2019-04-16T20:07:02.420Z,33.23
2019-04-16T20:09:29.059Z,35.90
2019-04-16T20:11:56.491Z,40.48
2019-04-16T20:14:23.531Z,37.85
2019-04-16T20:16:50.183Z,36.45
2019-04-16T20:19:16.818Z,30.70
2019-04-16T20:21:44.914Z,34.95
2019-04-16T20:24:11.537Z,32.63
2019-04-16T20:26:38.225Z,31.12
2019-04-16T20:29:05.110Z,33.55
2019-04-16T20:31:31.761Z,30.88
2019-04-16T20:33:58.389Z,32.00
2019-04-16T20:36:25.067Z,28.25
2019-04-16T20:38:51.683Z,31.33
2019-04-16T20:41:19.200Z,27.65
2019-04-16T20:43:46.041Z,36.65
2019-04-16T20:46:12.653Z,30.97
2019-04-16T20:48:41.898Z,30.35
2019-04-16T20:51:07.869Z,29.15
2019-04-16T20:53:34.480Z,34.08
2019-04-16T20:56:01.095Z,31.45
2019-04-16T20:58:30.771Z,29.65
2019-04-16T21:00:58.183Z,33.13
2019-04-16T21:03:25.932Z,30.15
2019-04-16T21:05:58.868Z,33.30
2019-04-16T21:08:24.414Z,35.50
2019-04-16T21:10:49.664Z,34.18
2019-04-16T21:13:16.864Z,38.30
2019-04-16T21:15:43.584Z,33.65
2019-04-16T21:18:12.065Z,35.80
2019-04-16T21:20:38.714Z,35.70
2019-04-16T21:23:05.324Z,34.27
2019-04-16T21:25:31.989Z,34.67
2019-04-16T21:28:06.861Z,33.28
2019-04-16T21:30:34.260Z,30.40
2019-04-16T21:33:20.572Z,38.75
2019-04-16T21:35:49.603Z,34.18
2019-04-16T21:38:24.895Z,27.55
2019-04-16T21:40:52.767Z,35.65
2019-04-16T21:43:20.143Z,31.12
2019-04-16T21:45:48.354Z,34.85
2019-04-16T21:48:15.412Z,32.48
2019-04-16T21:50:44.552Z,41.73
2019-04-16T21:53:11.561Z,38.00
2019-04-16T21:55:38.201Z,32.13
2019-04-16T21:58:05.193Z,34.10
2019-04-16T22:00:33.994Z,33.85
2019-04-16T22:03:09.151Z,36.15
2019-04-16T22:05:32.853Z,38.13
2019-04-16T22:07:59.549Z,40.55
2019-04-16T22:10:26.182Z,35.10
2019-04-16T22:12:52.791Z,31.20
2019-04-16T22:15:19.500Z,38.28
2019-04-16T22:17:46.134Z,38.83
2019-04-16T22:20:12.741Z,36.30
2019-04-16T22:22:39.385Z,35.33
2019-04-16T22:25:06.265Z,35.55
2019-04-16T22:27:33.043Z,34.67
2019-04-16T22:29:59.701Z,36.98
2019-04-16T22:32:26.967Z,35.73
2019-04-16T22:34:54.855Z,40.67
2019-04-16T22:37:21.545Z,32.38
2019-04-16T22:40:06.466Z,38.67
2019-04-16T22:42:44.073Z,33.33
2019-04-16T22:45:18.369Z,34.23
2019-04-16T22:47:46.819Z,37.48
2019-04-16T22:50:17.026Z,31.55
2019-04-16T22:52:44.980Z,34.55
2019-04-16T22:55:10.560Z,37.83
2019-04-16T22:57:37.195Z,31.02
2019-04-16T23:00:11.495Z,32.25
2019-04-16T23:02:36.900Z,34.65
2019-04-16T23:05:04.997Z,34.40
2019-04-16T23:07:32.895Z,32.38
2019-04-16T23:09:59.631Z,31.73
2019-04-16T23:12:28.049Z,33.48
2019-04-16T23:14:54.778Z,35.65
2019-04-16T23:17:23.269Z,33.67
2019-04-16T23:19:51.678Z,33.18
2019-04-16T23:22:18.454Z,31.33
2019-04-16T23:24:45.119Z,34.25
2019-04-16T23:27:11.740Z,34.30
2019-04-16T23:29:38.399Z,40.00
2019-04-16T23:32:05.011Z,32.67
2019-04-16T23:34:31.674Z,37.83
2019-04-16T23:36:58.677Z,33.48
2019-04-16T23:39:26.232Z,30.72
2019-04-16T23:41:52.848Z,31.50
2019-04-16T23:44:25.834Z,31.35
2019-04-16T23:47:00.078Z,31.10
2019-04-16T23:49:40.471Z,33.15
2019-04-16T23:52:20.952Z,31.85
2019-04-16T23:54:49.421Z,29.95
2019-04-16T23:57:24.820Z,29.70
